sensor_id;sensor_type;location;lat;lon;timestamp;P1;durP1;ratioP1;P2;durP2;ratioP2
49948;SDS011;35840;45.982;8.890;2024-02-14T00:00:07;6.43;;;3.42;;
49948;SDS011;35840;45.982;8.890;2024-02-14T00:02:44;10.23;;;4.18;;
49948;SDS011;35840;45.982;8.890;2024-02-14T00:05:16;4.55;;;3.50;;
49948;SDS011;35840;45.982;8.890;2024-02-14T00:07:43;7.18;;;2.95;;
49948;SDS011;35840;45.982;8.890;2024-02-14T00:10:10;4.63;;;3.78;;
49948;SDS011;35840;45.982;8.890;2024-02-14T00:12:37;5.85;;;3.40;;
49948;SDS011;35840;45.982;8.890;2024-02-14T00:15:05;6.70;;;3.50;;
49948;SDS011;35840;45.982;8.890;2024-02-14T00:17:34;9.40;;;3.83;;
49948;SDS011;35840;45.982;8.890;2024-02-14T00:20:01;8.50;;;3.92;;
49948;SDS011;35840;45.982;8.890;2024-02-14T00:22:30;5.90;;;3.83;;
49948;SDS011;35840;45.982;8.890;2024-02-14T00:24:57;4.80;;;3.95;;
49948;SDS011;35840;45.982;8.890;2024-02-14T00:27:24;4.50;;;2.85;;
49948;SDS011;35840;45.982;8.890;2024-02-14T00:29:52;6.57;;;3.10;;
49948;SDS011;35840;45.982;8.890;2024-02-14T00:32:21;6.72;;;4.18;;
49948;SDS011;35840;45.982;8.890;2024-02-14T00:34:48;5.95;;;3.63;;
49948;SDS011;35840;45.982;8.890;2024-02-14T00:37:16;5.65;;;3.42;;
49948;SDS011;35840;45.982;8.890;2024-02-14T00:39:43;7.82;;;3.28;;
49948;SDS011;35840;45.982;8.890;2024-02-14T00:42:10;4.75;;;3.50;;
49948;SDS011;35840;45.982;8.890;2024-02-14T00:44:37;4.13;;;3.15;;
49948;SDS011;35840;45.982;8.890;2024-02-14T00:47:04;3.65;;;2.60;;
49948;SDS011;35840;45.982;8.890;2024-02-14T00:49:34;5.68;;;3.13;;
49948;SDS011;35840;45.982;8.890;2024-02-14T00:52:01;5.07;;;2.53;;
49948;SDS011;35840;45.982;8.890;2024-02-14T00:54:28;4.03;;;2.45;;
49948;SDS011;35840;45.982;8.890;2024-02-14T00:56:55;3.42;;;2.60;;
49948;SDS011;35840;45.982;8.890;2024-02-14T00:59:22;6.15;;;1.92;;
49948;SDS011;35840;45.982;8.890;2024-02-14T01:01:51;3.60;;;1.92;;
49948;SDS011;35840;45.982;8.890;2024-02-14T01:04:18;4.28;;;2.17;;
49948;SDS011;35840;45.982;8.890;2024-02-14T01:06:45;3.75;;;1.95;;
49948;SDS011;35840;45.982;8.890;2024-02-14T01:09:12;2.53;;;1.83;;
49948;SDS011;35840;45.982;8.890;2024-02-14T01:11:39;3.05;;;1.67;;
49948;SDS011;35840;45.982;8.890;2024-02-14T01:14:06;6.22;;;2.05;;
49948;SDS011;35840;45.982;8.890;2024-02-14T01:16:33;2.38;;;1.80;;
49948;SDS011;35840;45.982;8.890;2024-02-14T01:18:59;3.28;;;1.60;;
49948;SDS011;35840;45.982;8.890;2024-02-14T01:21:27;4.68;;;1.90;;
49948;SDS011;35840;45.982;8.890;2024-02-14T01:23:54;2.78;;;1.75;;
49948;SDS011;35840;45.982;8.890;2024-02-14T01:26:20;6.35;;;2.70;;
49948;SDS011;35840;45.982;8.890;2024-02-14T01:28:47;3.53;;;2.00;;
49948;SDS011;35840;45.982;8.890;2024-02-14T01:31:15;5.47;;;2.60;;
49948;SDS011;35840;45.982;8.890;2024-02-14T01:33:41;9.05;;;2.47;;
49948;SDS011;35840;45.982;8.890;2024-02-14T01:36:09;3.47;;;2.03;;
49948;SDS011;35840;45.982;8.890;2024-02-14T01:38:36;2.75;;;1.83;;
49948;SDS011;35840;45.982;8.890;2024-02-14T01:41:03;3.53;;;1.88;;
49948;SDS011;35840;45.982;8.890;2024-02-14T01:43:31;2.72;;;1.70;;
49948;SDS011;35840;45.982;8.890;2024-02-14T01:46:04;2.88;;;2.00;;
49948;SDS011;35840;45.982;8.890;2024-02-14T01:48:35;2.58;;;1.73;;
49948;SDS011;35840;45.982;8.890;2024-02-14T01:51:03;3.40;;;1.80;;
49948;SDS011;35840;45.982;8.890;2024-02-14T01:53:31;2.63;;;1.70;;
49948;SDS011;35840;45.982;8.890;2024-02-14T01:55:59;3.10;;;1.63;;
49948;SDS011;35840;45.982;8.890;2024-02-14T01:58:26;3.33;;;1.80;;
49948;SDS011;35840;45.982;8.890;2024-02-14T02:00:56;4.38;;;1.77;;
49948;SDS011;35840;45.982;8.890;2024-02-14T02:03:26;2.65;;;1.70;;
49948;SDS011;35840;45.982;8.890;2024-02-14T02:05:53;4.60;;;2.05;;
49948;SDS011;35840;45.982;8.890;2024-02-14T02:08:21;2.95;;;1.90;;
49948;SDS011;35840;45.982;8.890;2024-02-14T02:10:48;2.25;;;1.63;;
49948;SDS011;35840;45.982;8.890;2024-02-14T02:13:16;1.92;;;1.70;;
49948;SDS011;35840;45.982;8.890;2024-02-14T02:15:43;2.00;;;1.80;;
49948;SDS011;35840;45.982;8.890;2024-02-14T02:18:13;5.00;;;1.98;;
49948;SDS011;35840;45.982;8.890;2024-02-14T02:20:42;3.00;;;2.10;;
49948;SDS011;35840;45.982;8.890;2024-02-14T02:23:12;4.40;;;1.80;;
49948;SDS011;35840;45.982;8.890;2024-02-14T02:25:42;2.60;;;1.60;;
49948;SDS011;35840;45.982;8.890;2024-02-14T02:28:09;3.30;;;1.55;;
49948;SDS011;35840;45.982;8.890;2024-02-14T02:30:36;2.55;;;1.80;;
49948;SDS011;35840;45.982;8.890;2024-02-14T02:33:04;2.00;;;1.60;;
49948;SDS011;35840;45.982;8.890;2024-02-14T02:35:32;2.72;;;1.70;;
49948;SDS011;35840;45.982;8.890;2024-02-14T02:37:59;2.78;;;1.80;;
49948;SDS011;35840;45.982;8.890;2024-02-14T02:40:26;3.05;;;2.05;;
49948;SDS011;35840;45.982;8.890;2024-02-14T02:42:56;3.15;;;1.95;;
49948;SDS011;35840;45.982;8.890;2024-02-14T02:45:22;2.50;;;1.48;;
49948;SDS011;35840;45.982;8.890;2024-02-14T02:47:49;2.65;;;1.63;;
49948;SDS011;35840;45.982;8.890;2024-02-14T02:50:19;3.47;;;1.38;;
49948;SDS011;35840;45.982;8.890;2024-02-14T02:52:48;2.65;;;1.92;;
49948;SDS011;35840;45.982;8.890;2024-02-14T02:55:15;1.70;;;1.20;;
49948;SDS011;35840;45.982;8.890;2024-02-14T02:57:45;2.53;;;1.70;;
49948;SDS011;35840;45.982;8.890;2024-02-14T03:00:12;3.65;;;1.83;;
49948;SDS011;35840;45.982;8.890;2024-02-14T03:02:40;1.45;;;1.00;;
49948;SDS011;35840;45.982;8.890;2024-02-14T03:05:13;2.67;;;1.95;;
49948;SDS011;35840;45.982;8.890;2024-02-14T03:07:45;4.55;;;1.73;;
49948;SDS011;35840;45.982;8.890;2024-02-14T03:10:14;2.30;;;1.38;;
49948;SDS011;35840;45.982;8.890;2024-02-14T03:12:45;3.33;;;1.42;;
49948;SDS011;35840;45.982;8.890;2024-02-14T03:15:13;2.17;;;1.42;;
49948;SDS011;35840;45.982;8.890;2024-02-14T03:17:41;3.28;;;1.63;;
49948;SDS011;35840;45.982;8.890;2024-02-14T03:20:11;3.40;;;1.58;;
49948;SDS011;35840;45.982;8.890;2024-02-14T03:22:44;5.47;;;1.42;;
49948;SDS011;35840;45.982;8.890;2024-02-14T03:25:18;2.33;;;1.25;;
49948;SDS011;35840;45.982;8.890;2024-02-14T03:27:46;6.40;;;1.40;;
49948;SDS011;35840;45.982;8.890;2024-02-14T03:30:16;2.33;;;1.40;;
49948;SDS011;35840;45.982;8.890;2024-02-14T03:32:44;3.92;;;1.33;;
49948;SDS011;35840;45.982;8.890;2024-02-14T03:35:12;1.80;;;1.20;;
49948;SDS011;35840;45.982;8.890;2024-02-14T03:37:40;1.40;;;1.10;;
49948;SDS011;35840;45.982;8.890;2024-02-14T03:40:08;2.25;;;1.20;;
49948;SDS011;35840;45.982;8.890;2024-02-14T03:42:36;3.47;;;1.27;;
49948;SDS011;35840;45.982;8.890;2024-02-14T03:45:07;1.33;;;1.20;;
49948;SDS011;35840;45.982;8.890;2024-02-14T03:47:35;1.05;;;0.95;;
49948;SDS011;35840;45.982;8.890;2024-02-14T03:50:07;1.70;;;1.10;;
49948;SDS011;35840;45.982;8.890;2024-02-14T03:52:34;1.27;;;1.10;;
49948;SDS011;35840;45.982;8.890;2024-02-14T03:55:01;2.60;;;1.30;;
49948;SDS011;35840;45.982;8.890;2024-02-14T03:57:29;1.98;;;1.40;;
49948;SDS011;35840;45.982;8.890;2024-02-14T03:59:57;1.98;;;1.10;;
49948;SDS011;35840;45.982;8.890;2024-02-14T04:02:36;1.67;;;0.90;;
49948;SDS011;35840;45.982;8.890;2024-02-14T04:05:06;1.70;;;1.08;;
49948;SDS011;35840;45.982;8.890;2024-02-14T04:07:34;4.65;;;1.30;;
49948;SDS011;35840;45.982;8.890;2024-02-14T04:10:01;0.85;;;0.85;;
49948;SDS011;35840;45.982;8.890;2024-02-14T04:12:27;1.55;;;1.08;;
49948;SDS011;35840;45.982;8.890;2024-02-14T04:14:55;2.78;;;0.80;;
49948;SDS011;35840;45.982;8.890;2024-02-14T04:17:22;2.92;;;1.50;;
49948;SDS011;35840;45.982;8.890;2024-02-14T04:19:49;1.88;;;1.08;;
49948;SDS011;35840;45.982;8.890;2024-02-14T04:22:16;2.03;;;1.25;;
49948;SDS011;35840;45.982;8.890;2024-02-14T04:24:43;2.00;;;1.10;;
49948;SDS011;35840;45.982;8.890;2024-02-14T04:27:09;2.92;;;1.50;;
49948;SDS011;35840;45.982;8.890;2024-02-14T04:29:36;2.63;;;1.33;;
49948;SDS011;35840;45.982;8.890;2024-02-14T04:32:03;1.83;;;1.10;;
49948;SDS011;35840;45.982;8.890;2024-02-14T04:34:31;2.65;;;1.15;;
49948;SDS011;35840;45.982;8.890;2024-02-14T04:36:58;3.03;;;1.42;;
49948;SDS011;35840;45.982;8.890;2024-02-14T04:39:25;1.90;;;1.45;;
49948;SDS011;35840;45.982;8.890;2024-02-14T04:41:52;2.03;;;1.45;;
49948;SDS011;35840;45.982;8.890;2024-02-14T04:44:28;2.53;;;1.48;;
49948;SDS011;35840;45.982;8.890;2024-02-14T04:46:55;2.85;;;1.48;;
49948;SDS011;35840;45.982;8.890;2024-02-14T04:49:24;4.60;;;0.90;;
49948;SDS011;35840;45.982;8.890;2024-02-14T04:51:52;2.20;;;1.52;;
49948;SDS011;35840;45.982;8.890;2024-02-14T04:54:19;2.65;;;1.10;;
49948;SDS011;35840;45.982;8.890;2024-02-14T04:56:45;1.70;;;1.10;;
49948;SDS011;35840;45.982;8.890;2024-02-14T04:59:16;1.55;;;1.17;;
49948;SDS011;35840;45.982;8.890;2024-02-14T05:01:43;1.17;;;1.02;;
49948;SDS011;35840;45.982;8.890;2024-02-14T05:04:10;1.65;;;1.20;;
49948;SDS011;35840;45.982;8.890;2024-02-14T05:06:37;2.10;;;1.20;;
49948;SDS011;35840;45.982;8.890;2024-02-14T05:09:05;5.53;;;1.23;;
49948;SDS011;35840;45.982;8.890;2024-02-14T05:11:32;1.58;;;1.00;;
49948;SDS011;35840;45.982;8.890;2024-02-14T05:13:59;3.22;;;1.30;;
49948;SDS011;35840;45.982;8.890;2024-02-14T05:16:28;1.15;;;1.00;;
49948;SDS011;35840;45.982;8.890;2024-02-14T05:18:54;3.35;;;1.17;;
49948;SDS011;35840;45.982;8.890;2024-02-14T05:21:22;3.40;;;1.15;;
49948;SDS011;35840;45.982;8.890;2024-02-14T05:23:49;1.25;;;1.10;;
49948;SDS011;35840;45.982;8.890;2024-02-14T05:26:16;6.50;;;1.63;;
49948;SDS011;35840;45.982;8.890;2024-02-14T05:28:43;2.15;;;1.30;;
49948;SDS011;35840;45.982;8.890;2024-02-14T05:31:10;3.28;;;1.30;;
49948;SDS011;35840;45.982;8.890;2024-02-14T05:33:36;1.77;;;1.27;;
49948;SDS011;35840;45.982;8.890;2024-02-14T05:36:04;1.75;;;1.00;;
49948;SDS011;35840;45.982;8.890;2024-02-14T05:38:32;2.00;;;0.90;;
49948;SDS011;35840;45.982;8.890;2024-02-14T05:41:00;1.48;;;1.15;;
49948;SDS011;35840;45.982;8.890;2024-02-14T05:43:28;1.17;;;1.00;;
49948;SDS011;35840;45.982;8.890;2024-02-14T05:45:55;1.10;;;0.77;;
49948;SDS011;35840;45.982;8.890;2024-02-14T05:48:22;0.90;;;0.80;;
49948;SDS011;35840;45.982;8.890;2024-02-14T05:50:49;2.30;;;1.40;;
49948;SDS011;35840;45.982;8.890;2024-02-14T05:53:16;2.75;;;1.05;;
49948;SDS011;35840;45.982;8.890;2024-02-14T05:55:43;1.73;;;0.90;;
49948;SDS011;35840;45.982;8.890;2024-02-14T05:58:10;3.30;;;1.38;;
49948;SDS011;35840;45.982;8.890;2024-02-14T06:00:37;1.90;;;0.93;;
49948;SDS011;35840;45.982;8.890;2024-02-14T06:03:04;1.75;;;1.00;;
49948;SDS011;35840;45.982;8.890;2024-02-14T06:05:33;5.57;;;1.00;;
49948;SDS011;35840;45.982;8.890;2024-02-14T06:08:01;3.42;;;1.10;;
49948;SDS011;35840;45.982;8.890;2024-02-14T06:10:29;1.50;;;0.82;;
49948;SDS011;35840;45.982;8.890;2024-02-14T06:12:56;1.42;;;0.93;;
49948;SDS011;35840;45.982;8.890;2024-02-14T06:15:23;3.70;;;1.10;;
49948;SDS011;35840;45.982;8.890;2024-02-14T06:17:50;3.75;;;1.17;;
49948;SDS011;35840;45.982;8.890;2024-02-14T06:20:17;1.50;;;0.90;;
49948;SDS011;35840;45.982;8.890;2024-02-14T06:22:45;2.72;;;1.00;;
49948;SDS011;35840;45.982;8.890;2024-02-14T06:25:23;3.38;;;1.00;;
49948;SDS011;35840;45.982;8.890;2024-02-14T06:27:49;1.75;;;1.13;;
49948;SDS011;35840;45.982;8.890;2024-02-14T06:30:16;1.45;;;1.08;;
49948;SDS011;35840;45.982;8.890;2024-02-14T06:32:44;1.17;;;1.02;;
49948;SDS011;35840;45.982;8.890;2024-02-14T06:35:11;2.60;;;1.35;;
49948;SDS011;35840;45.982;8.890;2024-02-14T06:37:42;2.50;;;0.88;;
49948;SDS011;35840;45.982;8.890;2024-02-14T06:40:21;1.42;;;1.30;;
49948;SDS011;35840;45.982;8.890;2024-02-14T06:42:48;1.90;;;1.33;;
49948;SDS011;35840;45.982;8.890;2024-02-14T06:45:17;1.35;;;1.05;;
49948;SDS011;35840;45.982;8.890;2024-02-14T06:47:44;1.20;;;1.05;;
49948;SDS011;35840;45.982;8.890;2024-02-14T06:50:11;4.20;;;1.27;;
49948;SDS011;35840;45.982;8.890;2024-02-14T06:52:37;3.40;;;1.45;;
49948;SDS011;35840;45.982;8.890;2024-02-14T06:55:04;4.07;;;1.50;;
49948;SDS011;35840;45.982;8.890;2024-02-14T06:57:31;2.08;;;1.20;;
49948;SDS011;35840;45.982;8.890;2024-02-14T06:59:58;1.88;;;1.40;;
49948;SDS011;35840;45.982;8.890;2024-02-14T07:02:25;3.17;;;1.40;;
49948;SDS011;35840;45.982;8.890;2024-02-14T07:04:54;3.17;;;1.30;;
49948;SDS011;35840;45.982;8.890;2024-02-14T07:07:21;1.67;;;1.20;;
49948;SDS011;35840;45.982;8.890;2024-02-14T07:09:48;1.60;;;1.20;;
49948;SDS011;35840;45.982;8.890;2024-02-14T07:12:15;5.78;;;1.42;;
49948;SDS011;35840;45.982;8.890;2024-02-14T07:14:42;1.48;;;1.27;;
49948;SDS011;35840;45.982;8.890;2024-02-14T07:17:09;4.25;;;2.13;;
49948;SDS011;35840;45.982;8.890;2024-02-14T07:19:35;2.53;;;1.40;;
49948;SDS011;35840;45.982;8.890;2024-02-14T07:22:05;1.83;;;1.10;;
49948;SDS011;35840;45.982;8.890;2024-02-14T07:24:31;2.53;;;1.25;;
49948;SDS011;35840;45.982;8.890;2024-02-14T07:26:58;2.55;;;1.63;;
49948;SDS011;35840;45.982;8.890;2024-02-14T07:29:25;5.50;;;2.17;;
49948;SDS011;35840;45.982;8.890;2024-02-14T07:31:52;4.45;;;1.50;;
49948;SDS011;35840;45.982;8.890;2024-02-14T07:34:19;2.20;;;1.80;;
49948;SDS011;35840;45.982;8.890;2024-02-14T07:36:46;5.22;;;1.50;;
49948;SDS011;35840;45.982;8.890;2024-02-14T07:39:13;3.22;;;1.80;;
49948;SDS011;35840;45.982;8.890;2024-02-14T07:41:40;3.83;;;2.53;;
49948;SDS011;35840;45.982;8.890;2024-02-14T07:44:07;2.97;;;2.08;;
49948;SDS011;35840;45.982;8.890;2024-02-14T07:46:34;2.13;;;1.90;;
49948;SDS011;35840;45.982;8.890;2024-02-14T07:49:00;4.03;;;2.22;;
49948;SDS011;35840;45.982;8.890;2024-02-14T07:51:27;3.05;;;2.58;;
49948;SDS011;35840;45.982;8.890;2024-02-14T07:53:55;4.05;;;2.67;;
49948;SDS011;35840;45.982;8.890;2024-02-14T07:56:22;5.22;;;2.40;;
49948;SDS011;35840;45.982;8.890;2024-02-14T07:58:49;3.28;;;2.30;;
49948;SDS011;35840;45.982;8.890;2024-02-14T08:01:16;4.40;;;2.70;;
49948;SDS011;35840;45.982;8.890;2024-02-14T08:03:43;6.15;;;3.00;;
49948;SDS011;35840;45.982;8.890;2024-02-14T08:06:13;9.38;;;2.55;;
49948;SDS011;35840;45.982;8.890;2024-02-14T08:08:40;7.15;;;2.83;;
49948;SDS011;35840;45.982;8.890;2024-02-14T08:11:07;8.38;;;2.78;;
49948;SDS011;35840;45.982;8.890;2024-02-14T08:13:34;5.22;;;2.85;;
49948;SDS011;35840;45.982;8.890;2024-02-14T08:16:00;5.22;;;2.72;;
49948;SDS011;35840;45.982;8.890;2024-02-14T08:18:27;4.82;;;2.78;;
49948;SDS011;35840;45.982;8.890;2024-02-14T08:20:54;3.50;;;2.78;;
49948;SDS011;35840;45.982;8.890;2024-02-14T08:23:21;6.78;;;2.78;;
49948;SDS011;35840;45.982;8.890;2024-02-14T08:25:49;4.30;;;1.83;;
49948;SDS011;35840;45.982;8.890;2024-02-14T08:28:16;2.30;;;1.80;;
49948;SDS011;35840;45.982;8.890;2024-02-14T08:30:44;5.15;;;2.40;;
49948;SDS011;35840;45.982;8.890;2024-02-14T08:33:11;2.08;;;1.65;;
49948;SDS011;35840;45.982;8.890;2024-02-14T08:35:38;3.42;;;1.90;;
49948;SDS011;35840;45.982;8.890;2024-02-14T08:38:09;2.30;;;1.50;;
49948;SDS011;35840;45.982;8.890;2024-02-14T08:40:36;2.42;;;1.95;;
49948;SDS011;35840;45.982;8.890;2024-02-14T08:43:03;3.50;;;1.90;;
49948;SDS011;35840;45.982;8.890;2024-02-14T08:45:31;4.88;;;2.42;;
49948;SDS011;35840;45.982;8.890;2024-02-14T08:47:58;4.30;;;2.50;;
49948;SDS011;35840;45.982;8.890;2024-02-14T08:50:25;4.95;;;2.20;;
49948;SDS011;35840;45.982;8.890;2024-02-14T08:52:52;4.15;;;2.15;;
49948;SDS011;35840;45.982;8.890;2024-02-14T08:55:19;5.75;;;2.13;;
49948;SDS011;35840;45.982;8.890;2024-02-14T08:57:46;5.15;;;2.45;;
49948;SDS011;35840;45.982;8.890;2024-02-14T09:00:14;4.50;;;2.42;;
49948;SDS011;35840;45.982;8.890;2024-02-14T09:02:46;4.70;;;2.63;;
49948;SDS011;35840;45.982;8.890;2024-02-14T09:05:16;4.63;;;3.38;;
49948;SDS011;35840;45.982;8.890;2024-02-14T09:07:44;5.47;;;2.90;;
49948;SDS011;35840;45.982;8.890;2024-02-14T09:10:11;6.93;;;2.53;;
49948;SDS011;35840;45.982;8.890;2024-02-14T09:12:42;3.45;;;2.22;;
49948;SDS011;35840;45.982;8.890;2024-02-14T09:15:09;3.22;;;2.10;;
49948;SDS011;35840;45.982;8.890;2024-02-14T09:17:36;3.53;;;1.35;;
49948;SDS011;35840;45.982;8.890;2024-02-14T09:20:03;3.30;;;1.88;;
49948;SDS011;35840;45.982;8.890;2024-02-14T09:22:34;1.67;;;1.25;;
49948;SDS011;35840;45.982;8.890;2024-02-14T09:25:04;2.63;;;1.33;;
49948;SDS011;35840;45.982;8.890;2024-02-14T09:27:32;1.95;;;1.52;;
49948;SDS011;35840;45.982;8.890;2024-02-14T09:30:00;2.28;;;1.48;;
49948;SDS011;35840;45.982;8.890;2024-02-14T09:32:30;1.83;;;1.40;;
49948;SDS011;35840;45.982;8.890;2024-02-14T09:35:00;2.55;;;1.15;;
49948;SDS011;35840;45.982;8.890;2024-02-14T09:37:30;1.60;;;0.85;;
49948;SDS011;35840;45.982;8.890;2024-02-14T09:39:57;3.88;;;1.25;;
49948;SDS011;35840;45.982;8.890;2024-02-14T09:42:28;1.73;;;1.15;;
49948;SDS011;35840;45.982;8.890;2024-02-14T09:45:04;1.48;;;1.05;;
49948;SDS011;35840;45.982;8.890;2024-02-14T09:47:32;1.95;;;1.00;;
49948;SDS011;35840;45.982;8.890;2024-02-14T09:50:01;1.00;;;0.90;;
49948;SDS011;35840;45.982;8.890;2024-02-14T09:52:29;2.30;;;1.00;;
49948;SDS011;35840;45.982;8.890;2024-02-14T09:55:00;1.38;;;1.23;;
49948;SDS011;35840;45.982;8.890;2024-02-14T09:57:29;1.77;;;1.05;;
49948;SDS011;35840;45.982;8.890;2024-02-14T09:59:57;1.30;;;1.20;;
49948;SDS011;35840;45.982;8.890;2024-02-14T10:02:26;1.75;;;1.15;;
49948;SDS011;35840;45.982;8.890;2024-02-14T10:04:53;1.67;;;1.40;;
49948;SDS011;35840;45.982;8.890;2024-02-14T10:07:19;6.28;;;1.40;;
49948;SDS011;35840;45.982;8.890;2024-02-14T10:09:46;2.10;;;0.80;;
49948;SDS011;35840;45.982;8.890;2024-02-14T10:12:15;1.10;;;0.80;;
49948;SDS011;35840;45.982;8.890;2024-02-14T10:14:42;1.90;;;1.20;;
49948;SDS011;35840;45.982;8.890;2024-02-14T10:17:16;1.73;;;0.93;;
49948;SDS011;35840;45.982;8.890;2024-02-14T10:19:54;1.45;;;0.90;;
49948;SDS011;35840;45.982;8.890;2024-02-14T10:22:25;1.30;;;0.63;;
49948;SDS011;35840;45.982;8.890;2024-02-14T10:24:58;1.13;;;0.70;;
49948;SDS011;35840;45.982;8.890;2024-02-14T10:27:25;1.88;;;0.88;;
49948;SDS011;35840;45.982;8.890;2024-02-14T10:29:55;1.85;;;0.82;;
49948;SDS011;35840;45.982;8.890;2024-02-14T10:32:22;4.65;;;0.90;;
49948;SDS011;35840;45.982;8.890;2024-02-14T10:34:50;1.75;;;0.85;;
49948;SDS011;35840;45.982;8.890;2024-02-14T10:37:18;1.58;;;1.00;;
49948;SDS011;35840;45.982;8.890;2024-02-14T10:39:47;2.17;;;1.02;;
49948;SDS011;35840;45.982;8.890;2024-02-14T10:42:19;1.73;;;0.80;;
49948;SDS011;35840;45.982;8.890;2024-02-14T10:44:45;3.60;;;0.85;;
49948;SDS011;35840;45.982;8.890;2024-02-14T10:47:18;1.10;;;0.70;;
49948;SDS011;35840;45.982;8.890;2024-02-14T10:49:48;1.40;;;0.80;;
49948;SDS011;35840;45.982;8.890;2024-02-14T10:52:17;1.48;;;1.15;;
49948;SDS011;35840;45.982;8.890;2024-02-14T10:54:47;1.25;;;1.00;;
49948;SDS011;35840;45.982;8.890;2024-02-14T10:57:26;0.80;;;0.80;;
49948;SDS011;35840;45.982;8.890;2024-02-14T10:59:55;2.17;;;1.23;;
49948;SDS011;35840;45.982;8.890;2024-02-14T11:02:24;4.53;;;0.98;;
49948;SDS011;35840;45.982;8.890;2024-02-14T11:04:51;4.10;;;1.30;;
49948;SDS011;35840;45.982;8.890;2024-02-14T11:07:20;2.28;;;1.00;;
49948;SDS011;35840;45.982;8.890;2024-02-14T11:10:12;3.03;;;2.03;;
49948;SDS011;35840;45.982;8.890;2024-02-14T11:12:40;1.30;;;1.20;;
49948;SDS011;35840;45.982;8.890;2024-02-14T11:17:38;1.67;;;1.45;;
49948;SDS011;35840;45.982;8.890;2024-02-14T11:20:13;1.67;;;1.10;;
49948;SDS011;35840;45.982;8.890;2024-02-14T11:22:49;1.67;;;1.15;;
49948;SDS011;35840;45.982;8.890;2024-02-14T11:25:33;4.22;;;1.15;;
49948;SDS011;35840;45.982;8.890;2024-02-14T11:28:02;1.40;;;1.05;;
49948;SDS011;35840;45.982;8.890;2024-02-14T11:30:50;2.58;;;1.00;;
49948;SDS011;35840;45.982;8.890;2024-02-14T11:33:22;1.33;;;0.93;;
49948;SDS011;35840;45.982;8.890;2024-02-14T11:35:51;2.13;;;0.98;;
49948;SDS011;35840;45.982;8.890;2024-02-14T11:38:19;0.77;;;0.70;;
49948;SDS011;35840;45.982;8.890;2024-02-14T11:40:48;1.00;;;0.90;;
49948;SDS011;35840;45.982;8.890;2024-02-14T11:43:16;1.00;;;0.85;;
49948;SDS011;35840;45.982;8.890;2024-02-14T11:45:44;1.42;;;1.33;;
49948;SDS011;35840;45.982;8.890;2024-02-14T11:48:20;1.33;;;1.15;;
49948;SDS011;35840;45.982;8.890;2024-02-14T11:50:48;1.98;;;1.00;;
49948;SDS011;35840;45.982;8.890;2024-02-14T11:53:15;1.10;;;1.00;;
49948;SDS011;35840;45.982;8.890;2024-02-14T11:55:45;3.08;;;1.35;;
49948;SDS011;35840;45.982;8.890;2024-02-14T11:58:16;1.42;;;1.20;;
49948;SDS011;35840;45.982;8.890;2024-02-14T12:00:44;1.17;;;1.00;;
49948;SDS011;35840;45.982;8.890;2024-02-14T12:03:13;2.95;;;1.10;;
49948;SDS011;35840;45.982;8.890;2024-02-14T12:05:43;1.45;;;1.20;;
49948;SDS011;35840;45.982;8.890;2024-02-14T12:08:11;1.45;;;1.05;;
49948;SDS011;35840;45.982;8.890;2024-02-14T12:10:38;1.40;;;1.20;;
49948;SDS011;35840;45.982;8.890;2024-02-14T12:13:08;1.95;;;1.75;;
49948;SDS011;35840;45.982;8.890;2024-02-14T12:15:38;2.08;;;1.00;;
49948;SDS011;35840;45.982;8.890;2024-02-14T12:18:10;2.25;;;1.40;;
49948;SDS011;35840;45.982;8.890;2024-02-14T12:20:37;1.50;;;1.10;;
49948;SDS011;35840;45.982;8.890;2024-02-14T12:23:05;1.35;;;1.00;;
49948;SDS011;35840;45.982;8.890;2024-02-14T12:25:32;1.50;;;1.27;;
49948;SDS011;35840;45.982;8.890;2024-02-14T12:28:00;2.60;;;1.05;;
49948;SDS011;35840;45.982;8.890;2024-02-14T12:30:42;1.50;;;0.90;;
49948;SDS011;35840;45.982;8.890;2024-02-14T12:33:13;2.05;;;1.20;;
49948;SDS011;35840;45.982;8.890;2024-02-14T12:35:44;1.42;;;1.02;;
49948;SDS011;35840;45.982;8.890;2024-02-14T12:38:12;1.40;;;1.30;;
49948;SDS011;35840;45.982;8.890;2024-02-14T12:40:42;1.45;;;1.13;;
49948;SDS011;35840;45.982;8.890;2024-02-14T12:43:09;1.60;;;0.80;;
49948;SDS011;35840;45.982;8.890;2024-02-14T12:45:37;1.75;;;0.98;;
49948;SDS011;35840;45.982;8.890;2024-02-14T12:48:05;1.80;;;1.05;;
49948;SDS011;35840;45.982;8.890;2024-02-14T12:50:35;3.53;;;0.90;;
49948;SDS011;35840;45.982;8.890;2024-02-14T12:53:04;3.03;;;1.17;;
49948;SDS011;35840;45.982;8.890;2024-02-14T12:55:31;2.20;;;1.20;;
49948;SDS011;35840;45.982;8.890;2024-02-14T12:57:59;2.13;;;0.88;;
49948;SDS011;35840;45.982;8.890;2024-02-14T13:00:26;2.10;;;1.55;;
49948;SDS011;35840;45.982;8.890;2024-02-14T13:02:53;2.10;;;1.40;;
49948;SDS011;35840;45.982;8.890;2024-02-14T13:05:21;3.83;;;1.95;;
49948;SDS011;35840;45.982;8.890;2024-02-14T13:07:47;2.45;;;1.88;;
49948;SDS011;35840;45.982;8.890;2024-02-14T13:10:14;2.05;;;1.35;;
49948;SDS011;35840;45.982;8.890;2024-02-14T13:12:41;1.25;;;1.15;;
49948;SDS011;35840;45.982;8.890;2024-02-14T13:15:10;2.90;;;1.50;;
49948;SDS011;35840;45.982;8.890;2024-02-14T13:17:37;2.00;;;1.48;;
49948;SDS011;35840;45.982;8.890;2024-02-14T13:20:04;2.35;;;1.55;;
49948;SDS011;35840;45.982;8.890;2024-02-14T13:22:32;1.40;;;1.30;;
49948;SDS011;35840;45.982;8.890;2024-02-14T13:24:59;1.70;;;1.30;;
49948;SDS011;35840;45.982;8.890;2024-02-14T13:27:29;1.60;;;1.50;;
49948;SDS011;35840;45.982;8.890;2024-02-14T13:29:56;1.95;;;1.30;;
49948;SDS011;35840;45.982;8.890;2024-02-14T13:32:23;2.42;;;1.63;;
49948;SDS011;35840;45.982;8.890;2024-02-14T13:34:50;3.58;;;1.52;;
49948;SDS011;35840;45.982;8.890;2024-02-14T13:37:17;3.20;;;1.08;;
49948;SDS011;35840;45.982;8.890;2024-02-14T13:39:44;2.00;;;1.65;;
49948;SDS011;35840;45.982;8.890;2024-02-14T13:42:11;1.73;;;1.40;;
49948;SDS011;35840;45.982;8.890;2024-02-14T13:44:38;2.58;;;1.92;;
49948;SDS011;35840;45.982;8.890;2024-02-14T13:47:05;2.97;;;2.10;;
49948;SDS011;35840;45.982;8.890;2024-02-14T13:49:32;3.72;;;2.22;;
49948;SDS011;35840;45.982;8.890;2024-02-14T13:52:00;5.72;;;3.25;;
49948;SDS011;35840;45.982;8.890;2024-02-14T13:54:26;4.25;;;2.90;;
49948;SDS011;35840;45.982;8.890;2024-02-14T13:56:53;4.25;;;2.25;;
49948;SDS011;35840;45.982;8.890;2024-02-14T13:59:21;4.25;;;2.22;;
49948;SDS011;35840;45.982;8.890;2024-02-14T14:01:48;3.42;;;2.42;;
49948;SDS011;35840;45.982;8.890;2024-02-14T14:04:15;3.92;;;2.25;;
49948;SDS011;35840;45.982;8.890;2024-02-14T14:06:42;3.50;;;2.40;;
49948;SDS011;35840;45.982;8.890;2024-02-14T14:09:09;5.38;;;2.40;;
49948;SDS011;35840;45.982;8.890;2024-02-14T14:11:37;3.38;;;2.30;;
49948;SDS011;35840;45.982;8.890;2024-02-14T14:14:05;3.63;;;2.60;;
49948;SDS011;35840;45.982;8.890;2024-02-14T14:16:34;4.18;;;2.75;;
49948;SDS011;35840;45.982;8.890;2024-02-14T14:19:01;5.28;;;3.45;;
49948;SDS011;35840;45.982;8.890;2024-02-14T14:21:30;5.75;;;3.53;;
49948;SDS011;35840;45.982;8.890;2024-02-14T14:23:57;4.68;;;2.38;;
49948;SDS011;35840;45.982;8.890;2024-02-14T14:26:24;5.85;;;3.15;;
49948;SDS011;35840;45.982;8.890;2024-02-14T14:28:51;4.15;;;2.67;;
49948;SDS011;35840;45.982;8.890;2024-02-14T14:31:20;5.47;;;2.53;;
49948;SDS011;35840;45.982;8.890;2024-02-14T14:33:47;3.50;;;2.40;;
49948;SDS011;35840;45.982;8.890;2024-02-14T14:36:15;5.15;;;3.08;;
49948;SDS011;35840;45.982;8.890;2024-02-14T14:38:42;5.47;;;2.95;;
49948;SDS011;35840;45.982;8.890;2024-02-14T14:41:09;6.18;;;2.88;;
49948;SDS011;35840;45.982;8.890;2024-02-14T14:43:37;8.18;;;3.88;;
49948;SDS011;35840;45.982;8.890;2024-02-14T14:46:03;3.15;;;2.67;;
49948;SDS011;35840;45.982;8.890;2024-02-14T14:48:30;6.15;;;2.63;;
49948;SDS011;35840;45.982;8.890;2024-02-14T14:50:57;3.97;;;2.70;;
49948;SDS011;35840;45.982;8.890;2024-02-14T14:53:24;5.45;;;2.92;;
49948;SDS011;35840;45.982;8.890;2024-02-14T14:55:53;3.17;;;2.20;;